sensor_id;sensor_type;location;lat;lon;timestamp;temperature;humidity
8188;DHT22;4135;49.184;9.722;2023-04-01T00:01:47;21.90;49.30
8188;DHT22;4135;49.184;9.722;2023-04-01T00:04:17;21.80;49.30
8188;DHT22;4135;49.184;9.722;2023-04-01T00:06:46;21.80;49.20
8188;DHT22;4135;49.184;9.722;2023-04-01T00:09:16;21.80;49.20
8188;DHT22;4135;49.184;9.722;2023-04-01T00:11:46;21.80;49.20
8188;DHT22;4135;49.184;9.722;2023-04-01T00:14:16;21.80;49.20
8188;DHT22;4135;49.184;9.722;2023-04-01T00:16:45;21.80;49.20
8188;DHT22;4135;49.184;9.722;2023-04-01T00:19:15;21.80;49.20
8188;DHT22;4135;49.184;9.722;2023-04-01T00:21:44;21.90;49.30
8188;DHT22;4135;49.184;9.722;2023-04-01T00:24:14;21.80;49.20
8188;DHT22;4135;49.184;9.722;2023-04-01T00:26:44;21.80;49.20
8188;DHT22;4135;49.184;9.722;2023-04-01T00:29:13;21.70;49.10
8188;DHT22;4135;49.184;9.722;2023-04-01T00:31:43;21.80;49.30
8188;DHT22;4135;49.184;9.722;2023-04-01T00:34:12;21.70;49.40
8188;DHT22;4135;49.184;9.722;2023-04-01T00:36:42;21.70;49.20
8188;DHT22;4135;49.184;9.722;2023-04-01T00:39:11;21.80;49.30
8188;DHT22;4135;49.184;9.722;2023-04-01T00:41:41;21.70;49.10
8188;DHT22;4135;49.184;9.722;2023-04-01T00:44:23;21.70;49.20
8188;DHT22;4135;49.184;9.722;2023-04-01T00:46:53;21.70;49.20
8188;DHT22;4135;49.184;9.722;2023-04-01T00:49:26;21.70;49.20
8188;DHT22;4135;49.184;9.722;2023-04-01T00:52:00;21.70;49.20
8188;DHT22;4135;49.184;9.722;2023-04-01T00:54:31;21.70;49.20
8188;DHT22;4135;49.184;9.722;2023-04-01T00:57:17;21.60;49.10
8188;DHT22;4135;49.184;9.722;2023-04-01T00:59:50;21.60;49.10
8188;DHT22;4135;49.184;9.722;2023-04-01T01:02:22;21.60;49.10
8188;DHT22;4135;49.184;9.722;2023-04-01T01:04:52;21.60;49.10
8188;DHT22;4135;49.184;9.722;2023-04-01T01:10:19;21.60;49.10
8188;DHT22;4135;49.184;9.722;2023-04-01T01:15:46;21.60;49.10
8188;DHT22;4135;49.184;9.722;2023-04-01T01:18:27;21.50;49.00
8188;DHT22;4135;49.184;9.722;2023-04-01T01:27:03;21.50;49.00
8188;DHT22;4135;49.184;9.722;2023-04-01T01:30:01;21.50;49.00
8188;DHT22;4135;49.184;9.722;2023-04-01T01:35:33;21.50;49.10
8188;DHT22;4135;49.184;9.722;2023-04-01T01:38:06;21.50;49.10
8188;DHT22;4135;49.184;9.722;2023-04-01T01:40:40;22.90;50.20
8188;DHT22;4135;49.184;9.722;2023-04-01T01:43:14;21.50;49.10
8188;DHT22;4135;49.184;9.722;2023-04-01T01:45:49;21.50;49.10
8188;DHT22;4135;49.184;9.722;2023-04-01T01:48:20;21.50;49.10
8188;DHT22;4135;49.184;9.722;2023-04-01T01:50:50;21.50;49.10
8188;DHT22;4135;49.184;9.722;2023-04-01T01:53:20;21.40;49.00
8188;DHT22;4135;49.184;9.722;2023-04-01T01:55:49;21.40;49.00
8188;DHT22;4135;49.184;9.722;2023-04-01T01:58:30;21.40;49.00
8188;DHT22;4135;49.184;9.722;2023-04-01T02:01:04;21.40;49.00
8188;DHT22;4135;49.184;9.722;2023-04-01T02:03:36;21.40;49.00
8188;DHT22;4135;49.184;9.722;2023-04-01T02:06:10;21.40;49.00
8188;DHT22;4135;49.184;9.722;2023-04-01T02:08:47;21.50;49.10
8188;DHT22;4135;49.184;9.722;2023-04-01T02:11:24;21.40;49.00
8188;DHT22;4135;49.184;9.722;2023-04-01T02:16:38;21.40;49.00
8188;DHT22;4135;49.184;9.722;2023-04-01T02:19:10;21.40;49.00
8188;DHT22;4135;49.184;9.722;2023-04-01T02:21:42;21.40;49.00
8188;DHT22;4135;49.184;9.722;2023-04-01T02:24:13;21.40;49.00
8188;DHT22;4135;49.184;9.722;2023-04-01T02:26:44;21.30;48.90
8188;DHT22;4135;49.184;9.722;2023-04-01T02:29:15;21.30;48.90
8188;DHT22;4135;49.184;9.722;2023-04-01T02:31:46;21.30;48.90
8188;DHT22;4135;49.184;9.722;2023-04-01T02:34:16;21.30;48.90
8188;DHT22;4135;49.184;9.722;2023-04-01T02:36:47;21.30;48.90
8188;DHT22;4135;49.184;9.722;2023-04-01T02:39:17;21.30;48.90
8188;DHT22;4135;49.184;9.722;2023-04-01T02:41:47;21.30;48.90
8188;DHT22;4135;49.184;9.722;2023-04-01T02:44:17;21.30;48.90
8188;DHT22;4135;49.184;9.722;2023-04-01T02:46:46;21.30;48.90
8188;DHT22;4135;49.184;9.722;2023-04-01T02:49:15;20.80;48.40
8188;DHT22;4135;49.184;9.722;2023-04-01T02:51:45;21.30;48.80
8188;DHT22;4135;49.184;9.722;2023-04-01T02:54:15;21.20;48.70
8188;DHT22;4135;49.184;9.722;2023-04-01T02:56:44;21.20;48.70
8188;DHT22;4135;49.184;9.722;2023-04-01T02:59:14;21.20;48.70
8188;DHT22;4135;49.184;9.722;2023-04-01T03:01:44;21.20;48.70
8188;DHT22;4135;49.184;9.722;2023-04-01T03:04:13;21.20;48.70
8188;DHT22;4135;49.184;9.722;2023-04-01T03:06:43;21.20;48.70
8188;DHT22;4135;49.184;9.722;2023-04-01T03:09:13;21.20;48.70
8188;DHT22;4135;49.184;9.722;2023-04-01T03:11:43;21.20;48.70
8188;DHT22;4135;49.184;9.722;2023-04-01T03:14:13;21.20;48.70
8188;DHT22;4135;49.184;9.722;2023-04-01T03:16:42;21.20;48.70
8188;DHT22;4135;49.184;9.722;2023-04-01T03:19:12;21.20;48.70
8188;DHT22;4135;49.184;9.722;2023-04-01T03:21:41;21.20;48.70
8188;DHT22;4135;49.184;9.722;2023-04-01T03:24:10;21.20;48.70
8188;DHT22;4135;49.184;9.722;2023-04-01T03:26:40;21.20;48.70
8188;DHT22;4135;49.184;9.722;2023-04-01T03:29:09;21.20;48.80
8188;DHT22;4135;49.184;9.722;2023-04-01T03:31:39;21.20;48.70
8188;DHT22;4135;49.184;9.722;2023-04-01T03:34:08;21.20;48.70
8188;DHT22;4135;49.184;9.722;2023-04-01T03:36:38;21.10;48.60
8188;DHT22;4135;49.184;9.722;2023-04-01T03:39:07;21.10;48.60
8188;DHT22;4135;49.184;9.722;2023-04-01T03:41:37;21.10;48.60
8188;DHT22;4135;49.184;9.722;2023-04-01T03:44:07;21.10;48.60
8188;DHT22;4135;49.184;9.722;2023-04-01T03:46:37;21.10;49.20
8188;DHT22;4135;49.184;9.722;2023-04-01T03:49:08;21.10;48.60
8188;DHT22;4135;49.184;9.722;2023-04-01T03:51:42;21.10;48.60
8188;DHT22;4135;49.184;9.722;2023-04-01T03:54:12;21.10;48.60
8188;DHT22;4135;49.184;9.722;2023-04-01T03:56:41;21.10;48.60
8188;DHT22;4135;49.184;9.722;2023-04-01T03:59:11;21.10;48.60
8188;DHT22;4135;49.184;9.722;2023-04-01T04:01:41;21.10;48.60
8188;DHT22;4135;49.184;9.722;2023-04-01T04:04:11;21.10;48.60
8188;DHT22;4135;49.184;9.722;2023-04-01T04:06:42;21.10;48.60
8188;DHT22;4135;49.184;9.722;2023-04-01T04:09:11;21.10;48.60
8188;DHT22;4135;49.184;9.722;2023-04-01T04:11:41;21.10;48.60
8188;DHT22;4135;49.184;9.722;2023-04-01T04:14:10;21.10;48.60
8188;DHT22;4135;49.184;9.722;2023-04-01T04:16:40;21.00;48.50
8188;DHT22;4135;49.184;9.722;2023-04-01T04:19:09;21.00;48.50
8188;DHT22;4135;49.184;9.722;2023-04-01T04:21:41;21.00;48.50
8188;DHT22;4135;49.184;9.722;2023-04-01T04:24:10;21.10;48.60
8188;DHT22;4135;49.184;9.722;2023-04-01T04:26:40;21.00;48.50
8188;DHT22;4135;49.184;9.722;2023-04-01T04:29:09;21.00;48.50
8188;DHT22;4135;49.184;9.722;2023-04-01T04:31:39;21.00;48.50
8188;DHT22;4135;49.184;9.722;2023-04-01T04:34:08;21.00;48.50
8188;DHT22;4135;49.184;9.722;2023-04-01T04:36:38;21.00;48.50
8188;DHT22;4135;49.184;9.722;2023-04-01T04:39:07;21.00;48.50
8188;DHT22;4135;49.184;9.722;2023-04-01T04:41:37;21.00;48.50
8188;DHT22;4135;49.184;9.722;2023-04-01T04:44:07;21.00;48.50
8188;DHT22;4135;49.184;9.722;2023-04-01T04:46:37;21.00;48.50
8188;DHT22;4135;49.184;9.722;2023-04-01T04:49:09;21.00;48.50
8188;DHT22;4135;49.184;9.722;2023-04-01T04:51:38;21.00;48.50
8188;DHT22;4135;49.184;9.722;2023-04-01T04:54:08;21.00;48.50
8188;DHT22;4135;49.184;9.722;2023-04-01T04:56:37;21.00;49.00
8188;DHT22;4135;49.184;9.722;2023-04-01T04:59:07;21.00;48.50
8188;DHT22;4135;49.184;9.722;2023-04-01T05:01:36;21.00;48.50
8188;DHT22;4135;49.184;9.722;2023-04-01T05:04:06;21.00;48.50
8188;DHT22;4135;49.184;9.722;2023-04-01T05:06:36;21.00;48.50
8188;DHT22;4135;49.184;9.722;2023-04-01T05:09:05;21.00;48.50
8188;DHT22;4135;49.184;9.722;2023-04-01T05:11:35;21.00;48.50
8188;DHT22;4135;49.184;9.722;2023-04-01T05:14:04;20.90;48.50
8188;DHT22;4135;49.184;9.722;2023-04-01T05:16:34;20.90;48.50
8188;DHT22;4135;49.184;9.722;2023-04-01T05:19:03;20.90;48.50
8188;DHT22;4135;49.184;9.722;2023-04-01T05:21:33;20.90;48.50
8188;DHT22;4135;49.184;9.722;2023-04-01T05:24:02;20.90;48.50
8188;DHT22;4135;49.184;9.722;2023-04-01T05:26:32;21.00;48.50
8188;DHT22;4135;49.184;9.722;2023-04-01T05:29:02;20.90;48.40
8188;DHT22;4135;49.184;9.722;2023-04-01T05:31:31;20.90;48.50
8188;DHT22;4135;49.184;9.722;2023-04-01T05:34:01;21.00;48.60
8188;DHT22;4135;49.184;9.722;2023-04-01T05:36:30;20.90;48.50
8188;DHT22;4135;49.184;9.722;2023-04-01T05:39:00;20.90;48.50
8188;DHT22;4135;49.184;9.722;2023-04-01T05:41:30;21.00;48.50
8188;DHT22;4135;49.184;9.722;2023-04-01T05:43:59;20.90;48.50
8188;DHT22;4135;49.184;9.722;2023-04-01T05:46:29;21.00;48.50
8188;DHT22;4135;49.184;9.722;2023-04-01T05:48:58;21.00;48.60
8188;DHT22;4135;49.184;9.722;2023-04-01T05:51:28;21.00;48.60
8188;DHT22;4135;49.184;9.722;2023-04-01T05:53:57;20.90;48.50
8188;DHT22;4135;49.184;9.722;2023-04-01T05:56:27;20.90;48.50
8188;DHT22;4135;49.184;9.722;2023-04-01T05:58:56;20.90;48.50
8188;DHT22;4135;49.184;9.722;2023-04-01T06:01:26;20.90;48.50
8188;DHT22;4135;49.184;9.722;2023-04-01T06:03:55;20.90;48.50
8188;DHT22;4135;49.184;9.722;2023-04-01T06:06:27;21.00;48.60
8188;DHT22;4135;49.184;9.722;2023-04-01T06:09:10;20.90;48.50
8188;DHT22;4135;49.184;9.722;2023-04-01T06:12:08;20.90;48.50
8188;DHT22;4135;49.184;9.722;2023-04-01T06:14:57;20.90;48.50
8188;DHT22;4135;49.184;9.722;2023-04-01T06:20:30;20.90;48.50
8188;DHT22;4135;49.184;9.722;2023-04-01T06:32:09;20.90;48.50
8188;DHT22;4135;49.184;9.722;2023-04-01T06:37:39;20.90;48.50
8188;DHT22;4135;49.184;9.722;2023-04-01T06:42:58;20.90;48.50
8188;DHT22;4135;49.184;9.722;2023-04-01T06:45:54;20.90;48.60
8188;DHT22;4135;49.184;9.722;2023-04-01T06:48:34;20.90;48.60
8188;DHT22;4135;49.184;9.722;2023-04-01T06:51:23;20.90;48.60
8188;DHT22;4135;49.184;9.722;2023-04-01T06:54:04;20.80;48.80
8188;DHT22;4135;49.184;9.722;2023-04-01T06:56:37;20.80;48.40
8188;DHT22;4135;49.184;9.722;2023-04-01T06:59:17;20.80;48.40
8188;DHT22;4135;49.184;9.722;2023-04-01T07:01:55;20.90;48.50
8188;DHT22;4135;49.184;9.722;2023-04-01T07:04:29;20.90;48.50
8188;DHT22;4135;49.184;9.722;2023-04-01T07:09:38;20.90;48.60
8188;DHT22;4135;49.184;9.722;2023-04-01T07:12:21;20.90;48.60
8188;DHT22;4135;49.184;9.722;2023-04-01T07:14:54;20.90;48.70
8188;DHT22;4135;49.184;9.722;2023-04-01T07:17:28;20.90;48.70
8188;DHT22;4135;49.184;9.722;2023-04-01T07:20:10;20.90;48.70
8188;DHT22;4135;49.184;9.722;2023-04-01T07:22:44;20.90;48.70
8188;DHT22;4135;49.184;9.722;2023-04-01T07:25:21;20.90;48.80
8188;DHT22;4135;49.184;9.722;2023-04-01T07:28:04;20.90;48.80
8188;DHT22;4135;49.184;9.722;2023-04-01T07:34:05;20.90;48.90
8188;DHT22;4135;49.184;9.722;2023-04-01T07:37:31;20.90;49.00
8188;DHT22;4135;49.184;9.722;2023-04-01T07:48:17;20.90;49.10
8188;DHT22;4135;49.184;9.722;2023-04-01T07:50:57;20.90;49.20
8188;DHT22;4135;49.184;9.722;2023-04-01T07:59:35;21.00;49.50
8188;DHT22;4135;49.184;9.722;2023-04-01T08:07:57;21.00;49.60
8188;DHT22;4135;49.184;9.722;2023-04-01T08:10:40;21.00;49.70
8188;DHT22;4135;49.184;9.722;2023-04-01T08:16:31;21.00;49.70
8188;DHT22;4135;49.184;9.722;2023-04-01T08:19:31;21.00;49.80
8188;DHT22;4135;49.184;9.722;2023-04-01T08:22:12;21.00;49.80
8188;DHT22;4135;49.184;9.722;2023-04-01T08:24:45;21.00;49.80
8188;DHT22;4135;49.184;9.722;2023-04-01T08:27:41;21.00;49.80
8188;DHT22;4135;49.184;9.722;2023-04-01T08:30:23;21.00;49.80
8188;DHT22;4135;49.184;9.722;2023-04-01T08:33:00;21.00;49.90
8188;DHT22;4135;49.184;9.722;2023-04-01T08:35:50;21.00;49.90
8188;DHT22;4135;49.184;9.722;2023-04-01T08:38:36;21.00;49.90
8188;DHT22;4135;49.184;9.722;2023-04-01T08:44:28;21.00;49.90
8188;DHT22;4135;49.184;9.722;2023-04-01T08:47:18;21.00;49.90
8188;DHT22;4135;49.184;9.722;2023-04-01T08:50:08;21.10;50.00
8188;DHT22;4135;49.184;9.722;2023-04-01T08:53:07;21.10;49.80
8188;DHT22;4135;49.184;9.722;2023-04-01T08:58:45;21.30;49.80
8188;DHT22;4135;49.184;9.722;2023-04-01T09:01:21;21.30;49.70
8188;DHT22;4135;49.184;9.722;2023-04-01T09:10:17;21.50;49.60
8188;DHT22;4135;49.184;9.722;2023-04-01T09:15:36;21.60;49.70
8188;DHT22;4135;49.184;9.722;2023-04-01T09:27:03;22.50;49.30
8188;DHT22;4135;49.184;9.722;2023-04-01T09:30:03;22.70;49.20
8188;DHT22;4135;49.184;9.722;2023-04-01T09:36:12;23.00;48.80
8188;DHT22;4135;49.184;9.722;2023-04-01T09:38:58;23.10;48.70
8188;DHT22;4135;49.184;9.722;2023-04-01T09:41:36;23.20;48.70
8188;DHT22;4135;49.184;9.722;2023-04-01T09:44:22;23.30;48.70
8188;DHT22;4135;49.184;9.722;2023-04-01T09:47:19;23.30;48.70
8188;DHT22;4135;49.184;9.722;2023-04-01T09:52:42;23.40;48.70
8188;DHT22;4135;49.184;9.722;2023-04-01T10:04:09;23.40;48.40
8188;DHT22;4135;49.184;9.722;2023-04-01T10:12:45;23.40;48.20
8188;DHT22;4135;49.184;9.722;2023-04-01T10:21:41;23.30;48.00
8188;DHT22;4135;49.184;9.722;2023-04-01T10:24:42;23.30;47.90
8188;DHT22;4135;49.184;9.722;2023-04-01T10:27:41;23.20;47.80
8188;DHT22;4135;49.184;9.722;2023-04-01T10:36:31;23.70;47.50
8188;DHT22;4135;49.184;9.722;2023-04-01T10:45:24;23.70;47.70
8188;DHT22;4135;49.184;9.722;2023-04-01T10:48:31;23.70;47.80
8188;DHT22;4135;49.184;9.722;2023-04-01T10:54:56;23.70;48.00
8188;DHT22;4135;49.184;9.722;2023-04-01T10:58:06;23.70;48.10
8188;DHT22;4135;49.184;9.722;2023-04-01T11:03:56;23.60;48.10
8188;DHT22;4135;49.184;9.722;2023-04-01T11:12:34;24.00;47.90
8188;DHT22;4135;49.184;9.722;2023-04-01T11:37:54;25.90;46.40
8188;DHT22;4135;49.184;9.722;2023-04-01T11:43:21;25.80;46.70
8188;DHT22;4135;49.184;9.722;2023-04-01T11:48:49;25.60;47.00
8188;DHT22;4135;49.184;9.722;2023-04-01T11:54:53;25.60;47.30
8188;DHT22;4135;49.184;9.722;2023-04-01T12:06:51;25.50;47.60
8188;DHT22;4135;49.184;9.722;2023-04-01T12:12:38;25.50;47.70
8188;DHT22;4135;49.184;9.722;2023-04-01T12:15:23;25.40;47.70
8188;DHT22;4135;49.184;9.722;2023-04-01T12:21:19;25.40;47.80
8188;DHT22;4135;49.184;9.722;2023-04-01T12:24:09;25.40;47.90
8188;DHT22;4135;49.184;9.722;2023-04-01T12:33:10;25.30;47.90
8188;DHT22;4135;49.184;9.722;2023-04-01T12:41:56;24.60;47.80
8188;DHT22;4135;49.184;9.722;2023-04-01T12:44:37;24.50;47.90
8188;DHT22;4135;49.184;9.722;2023-04-01T12:53:02;24.30;48.00
8188;DHT22;4135;49.184;9.722;2023-04-01T12:55:40;24.20;47.80
8188;DHT22;4135;49.184;9.722;2023-04-01T12:58:32;24.10;47.80
8188;DHT22;4135;49.184;9.722;2023-04-01T13:04:18;24.00;47.80
8188;DHT22;4135;49.184;9.722;2023-04-01T13:06:57;23.90;47.70
8188;DHT22;4135;49.184;9.722;2023-04-01T13:15:26;23.80;48.00
8188;DHT22;4135;49.184;9.722;2023-04-01T13:26:46;23.80;48.50
8188;DHT22;4135;49.184;9.722;2023-04-01T13:29:25;23.80;48.70
8188;DHT22;4135;49.184;9.722;2023-04-01T13:40:33;23.80;48.60
8188;DHT22;4135;49.184;9.722;2023-04-01T13:43:37;23.90;48.50
8188;DHT22;4135;49.184;9.722;2023-04-01T13:49:16;23.90;48.40
8188;DHT22;4135;49.184;9.722;2023-04-01T13:52:04;24.00;48.60
8188;DHT22;4135;49.184;9.722;2023-04-01T14:00:39;24.00;48.60
8188;DHT22;4135;49.184;9.722;2023-04-01T14:03:28;23.90;48.60
8188;DHT22;4135;49.184;9.722;2023-04-01T14:12:09;23.70;48.40
8188;DHT22;4135;49.184;9.722;2023-04-01T14:15:03;23.70;48.20
8188;DHT22;4135;49.184;9.722;2023-04-01T14:20:39;23.60;47.90
8188;DHT22;4135;49.184;9.722;2023-04-01T14:28:36;23.40;47.20
8188;DHT22;4135;49.184;9.722;2023-04-01T14:34:03;23.50;47.40
8188;DHT22;4135;49.184;9.722;2023-04-01T14:37:06;23.60;47.50
8188;DHT22;4135;49.184;9.722;2023-04-01T14:48:49;23.90;46.60
8188;DHT22;4135;49.184;9.722;2023-04-01T14:51:32;24.00;46.50
8188;DHT22;4135;49.184;9.722;2023-04-01T14:54:13;24.10;46.50
8188;DHT22;4135;49.184;9.722;2023-04-01T15:00:16;24.20;46.50
8188;DHT22;4135;49.184;9.722;2023-04-01T15:03:18;24.30;46.60
8188;DHT22;4135;49.184;9.722;2023-04-01T15:18:07;24.50;46.80
8188;DHT22;4135;49.184;9.722;2023-04-01T15:23:27;24.50;46.80
8188;DHT22;4135;49.184;9.722;2023-04-01T15:29:15;24.40;46.90
8188;DHT22;4135;49.184;9.722;2023-04-01T15:32:01;24.50;47.20
8188;DHT22;4135;49.184;9.722;2023-04-01T15:34:49;24.40;47.30
8188;DHT22;4135;49.184;9.722;2023-04-01T15:40:20;24.40;47.40
8188;DHT22;4135;49.184;9.722;2023-04-01T16:01:53;23.80;46.90
8188;DHT22;4135;49.184;9.722;2023-04-01T16:10:09;23.80;47.10
8188;DHT22;4135;49.184;9.722;2023-04-01T16:13:11;23.80;47.10
8188;DHT22;4135;49.184;9.722;2023-04-01T16:16:09;23.80;47.20
8188;DHT22;4135;49.184;9.722;2023-04-01T16:19:09;23.70;47.10
8188;DHT22;4135;49.184;9.722;2023-04-01T16:21:52;23.70;47.20
8188;DHT22;4135;49.184;9.722;2023-04-01T16:24:45;23.70;47.20
8188;DHT22;4135;49.184;9.722;2023-04-01T16:30:01;23.70;47.40
8188;DHT22;4135;49.184;9.722;2023-04-01T16:32:41;23.60;47.40
8188;DHT22;4135;49.184;9.722;2023-04-01T16:35:44;23.60;47.30
8188;DHT22;4135;49.184;9.722;2023-04-01T16:41:11;23.50;47.40
8188;DHT22;4135;49.184;9.722;2023-04-01T16:44:17;23.50;47.50
8188;DHT22;4135;49.184;9.722;2023-04-01T16:47:05;23.50;47.50
8188;DHT22;4135;49.184;9.722;2023-04-01T16:49:41;23.50;47.50
8188;DHT22;4135;49.184;9.722;2023-04-01T16:54:54;23.40;47.50
8188;DHT22;4135;49.184;9.722;2023-04-01T16:57:51;23.30;47.50
8188;DHT22;4135;49.184;9.722;2023-04-01T17:00:28;23.30;47.60
8188;DHT22;4135;49.184;9.722;2023-04-01T17:05:50;23.30;47.60
8188;DHT22;4135;49.184;9.722;2023-04-01T17:11:44;23.20;47.70
8188;DHT22;4135;49.184;9.722;2023-04-01T17:17:34;23.20;48.50
8188;DHT22;4135;49.184;9.722;2023-04-01T17:20:19;23.20;48.00
8188;DHT22;4135;49.184;9.722;2023-04-01T17:23:11;23.20;48.00
8188;DHT22;4135;49.184;9.722;2023-04-01T17:29:02;23.40;48.10
8188;DHT22;4135;49.184;9.722;2023-04-01T17:43:22;23.60;48.10
8188;DHT22;4135;49.184;9.722;2023-04-01T17:46:04;23.60;48.00
8188;DHT22;4135;49.184;9.722;2023-04-01T17:48:45;23.60;47.90
8188;DHT22;4135;49.184;9.722;2023-04-01T17:51:29;23.60;47.70
8188;DHT22;4135;49.184;9.722;2023-04-01T17:54:20;23.70;47.80
8188;DHT22;4135;49.184;9.722;2023-04-01T18:00:00;23.60;47.50
8188;DHT22;4135;49.184;9.722;2023-04-01T18:08:11;23.70;47.50
8188;DHT22;4135;49.184;9.722;2023-04-01T18:14:07;23.60;47.40
8188;DHT22;4135;49.184;9.722;2023-04-01T18:23:14;23.60;47.60
8188;DHT22;4135;49.184;9.722;2023-04-01T18:25:53;23.50;47.50
8188;DHT22;4135;49.184;9.722;2023-04-01T18:28:35;23.50;47.60
8188;DHT22;4135;49.184;9.722;2023-04-01T18:31:15;23.50;47.60
8188;DHT22;4135;49.184;9.722;2023-04-01T18:36:51;23.50;47.70
8188;DHT22;4135;49.184;9.722;2023-04-01T18:39:33;23.40;47.70
8188;DHT22;4135;49.184;9.722;2023-04-01T18:48:14;23.40;47.90
8188;DHT22;4135;49.184;9.722;2023-04-01T18:51:10;23.40;48.00
8188;DHT22;4135;49.184;9.722;2023-04-01T18:53:48;23.40;48.00
8188;DHT22;4135;49.184;9.722;2023-04-01T18:56:34;23.40;48.10
8188;DHT22;4135;49.184;9.722;2023-04-01T18:59:33;23.40;48.20
8188;DHT22;4135;49.184;9.722;2023-04-01T19:02:28;23.40;48.30
8188;DHT22;4135;49.184;9.722;2023-04-01T19:07:55;23.30;48.30
8188;DHT22;4135;49.184;9.722;2023-04-01T19:10:37;23.30;48.40
8188;DHT22;4135;49.184;9.722;2023-04-01T19:16:21;23.30;48.50
8188;DHT22;4135;49.184;9.722;2023-04-01T19:21:56;23.20;48.80
8188;DHT22;4135;49.184;9.722;2023-04-01T19:24:59;23.20;48.90
8188;DHT22;4135;49.184;9.722;2023-04-01T19:27:37;23.20;48.90
8188;DHT22;4135;49.184;9.722;2023-04-01T19:30:59;23.10;48.90
8188;DHT22;4135;49.184;9.722;2023-04-01T19:33:21;23.10;48.90
8188;DHT22;4135;49.184;9.722;2023-04-01T19:38:31;23.10;49.10
8188;DHT22;4135;49.184;9.722;2023-04-01T19:44:27;23.00;49.10
8188;DHT22;4135;49.184;9.722;2023-04-01T19:50:04;23.00;49.30
8188;DHT22;4135;49.184;9.722;2023-04-01T19:52:40;23.00;49.30
8188;DHT22;4135;49.184;9.722;2023-04-01T19:58:20;23.00;49.30
8188;DHT22;4135;49.184;9.722;2023-04-01T20:00:58;22.90;49.20
8188;DHT22;4135;49.184;9.722;2023-04-01T20:03:49;22.90;49.20
8188;DHT22;4135;49.184;9.722;2023-04-01T20:11:58;22.90;49.30
8188;DHT22;4135;49.184;9.722;2023-04-01T20:14:39;22.90;49.30
8188;DHT22;4135;49.184;9.722;2023-04-01T20:17:32;22.90;49.30
8188;DHT22;4135;49.184;9.722;2023-04-01T20:25:23;22.80;49.30
8188;DHT22;4135;49.184;9.722;2023-04-01T20:30:47;22.80;49.30
8188;DHT22;4135;49.184;9.722;2023-04-01T20:47:18;22.70;49.30
8188;DHT22;4135;49.184;9.722;2023-04-01T20:53:05;22.70;49.30
8188;DHT22;4135;49.184;9.722;2023-04-01T20:55:55;22.70;49.30
8188;DHT22;4135;49.184;9.722;2023-04-01T21:01:35;22.70;49.30
8188;DHT22;4135;49.184;9.722;2023-04-01T21:07:37;22.80;49.20
8188;DHT22;4135;49.184;9.722;2023-04-01T21:10:40;22.90;49.30
8188;DHT22;4135;49.184;9.722;2023-04-01T21:13:23;22.80;49.20
8188;DHT22;4135;49.184;9.722;2023-04-01T21:16:16;22.80;49.30
8188;DHT22;4135;49.184;9.722;2023-04-01T21:19:00;22.80;49.20
8188;DHT22;4135;49.184;9.722;2023-04-01T21:28:10;22.80;49.30
8188;DHT22;4135;49.184;9.722;2023-04-01T21:39:37;22.70;49.20
8188;DHT22;4135;49.184;9.722;2023-04-01T22:02:16;22.70;49.30
8188;DHT22;4135;49.184;9.722;2023-04-01T22:04:56;22.70;49.00
8188;DHT22;4135;49.184;9.722;2023-04-01T22:07:38;22.70;49.10
8188;DHT22;4135;49.184;9.722;2023-04-01T22:10:37;22.60;49.10
8188;DHT22;4135;49.184;9.722;2023-04-01T22:13:17;22.60;49.10
8188;DHT22;4135;49.184;9.722;2023-04-01T22:16:07;22.60;49.10
8188;DHT22;4135;49.184;9.722;2023-04-01T22:22:01;22.50;49.10
8188;DHT22;4135;49.184;9.722;2023-04-01T22:28:07;22.50;49.10
8188;DHT22;4135;49.184;9.722;2023-04-01T22:30:51;22.50;49.20
8188;DHT22;4135;49.184;9.722;2023-04-01T22:42:23;22.40;49.10
8188;DHT22;4135;49.184;9.722;2023-04-01T22:47:56;22.30;49.10
8188;DHT22;4135;49.184;9.722;2023-04-01T22:50:38;22.30;49.10
8188;DHT22;4135;49.184;9.722;2023-04-01T22:53:32;22.30;49.10
8188;DHT22;4135;49.184;9.722;2023-04-01T22:56:17;22.30;49.10
8188;DHT22;4135;49.184;9.722;2023-04-01T22:59:00;22.30;49.10
8188;DHT22;4135;49.184;9.722;2023-04-01T23:01:34;22.30;49.10
8188;DHT22;4135;49.184;9.722;2023-04-01T23:04:09;22.20;49.00
8188;DHT22;4135;49.184;9.722;2023-04-01T23:06:49;22.20;49.00
8188;DHT22;4135;49.184;9.722;2023-04-01T23:09:26;22.20;49.10
8188;DHT22;4135;49.184;9.722;2023-04-01T23:12:05;22.20;49.10
8188;DHT22;4135;49.184;9.722;2023-04-01T23:14:47;22.20;49.10
8188;DHT22;4135;49.184;9.722;2023-04-01T23:17:32;22.20;49.10
8188;DHT22;4135;49.184;9.722;2023-04-01T23:20:14;22.20;49.10
8188;DHT22;4135;49.184;9.722;2023-04-01T23:23:20;22.20;49.10
8188;DHT22;4135;49.184;9.722;2023-04-01T23:29:01;22.10;49.10
8188;DHT22;4135;49.184;9.722;2023-04-01T23:31:41;22.10;49.10
8188;DHT22;4135;49.184;9.722;2023-04-01T23:36:44;22.10;49.10
8188;DHT22;4135;49.184;9.722;2023-04-01T23:39:38;22.10;49.10
8188;DHT22;4135;49.184;9.722;2023-04-01T23:42:41;22.10;49.20
8188;DHT22;4135;49.184;9.722;2023-04-01T23:45:14;22.00;49.10
8188;DHT22;4135;49.184;9.722;2023-04-01T23:47:52;22.00;49.10
8188;DHT22;4135;49.184;9.722;2023-04-01T23:50:25;22.00;49.10
8188;DHT22;4135;49.184;9.722;2023-04-01T23:53:01;22.00;49.10
8188;DHT22;4135;49.184;9.722;2023-04-01T23:55:32;22.00;49.10
